createdAt,value
2017-09-30T00:01:38.950Z,8.33
2017-09-30T00:04:06.423Z,6.53
2017-09-30T00:06:33.767Z,6.90
2017-09-30T00:09:01.109Z,9.20
2017-09-30T00:11:28.432Z,8.77
2017-09-30T00:13:55.860Z,8.77
2017-09-30T00:16:23.314Z,8.93
2017-09-30T00:18:50.636Z,8.77
2017-09-30T00:21:18.022Z,10.00
2017-09-30T00:23:45.353Z,9.23
2017-09-30T00:26:12.700Z,5.23
2017-09-30T00:28:40.105Z,10.40
2017-09-30T00:31:07.494Z,5.50
2017-09-30T00:33:34.840Z,7.40
2017-09-30T00:36:02.189Z,9.43
2017-09-30T00:38:29.564Z,5.43
2017-09-30T00:40:57.099Z,5.30
2017-09-30T00:43:24.535Z,6.57
2017-09-30T00:45:51.912Z,10.10
2017-09-30T00:48:19.274Z,5.77
2017-09-30T00:50:46.638Z,14.30
2017-09-30T00:53:14.005Z,6.63
2017-09-30T00:55:41.396Z,5.47
2017-09-30T00:58:08.708Z,5.53
2017-09-30T01:00:36.040Z,6.77
2017-09-30T01:03:03.428Z,6.80
2017-09-30T01:05:30.745Z,8.40
2017-09-30T01:07:58.124Z,7.87
2017-09-30T01:10:25.507Z,7.80
2017-09-30T01:12:52.860Z,5.73
2017-09-30T01:15:20.223Z,5.23
2017-09-30T01:17:47.691Z,6.83
2017-09-30T01:20:15.160Z,5.70
2017-09-30T01:22:42.543Z,9.57
2017-09-30T01:25:10.202Z,6.90
2017-09-30T01:27:37.523Z,6.63
2017-09-30T01:30:04.849Z,5.60
2017-09-30T01:32:32.337Z,7.50
2017-09-30T01:34:59.682Z,5.40
2017-09-30T01:37:27.015Z,7.70
2017-09-30T01:39:54.388Z,7.90
2017-09-30T01:42:21.702Z,5.80
2017-09-30T01:44:49.048Z,8.53
2017-09-30T01:47:16.403Z,5.97
2017-09-30T01:49:43.784Z,7.20
2017-09-30T01:52:11.136Z,6.23
2017-09-30T01:54:38.507Z,7.30
2017-09-30T01:57:05.865Z,7.43
2017-09-30T01:59:33.221Z,7.57
2017-09-30T02:02:00.559Z,5.70
2017-09-30T02:04:27.890Z,9.00
2017-09-30T02:06:55.240Z,6.47
2017-09-30T02:09:22.572Z,5.90
2017-09-30T02:11:49.922Z,7.13
2017-09-30T02:14:17.261Z,6.00
2017-09-30T02:16:44.642Z,5.23
2017-09-30T02:19:11.969Z,6.63
2017-09-30T02:21:39.316Z,9.20
2017-09-30T02:24:06.665Z,5.53
2017-09-30T02:26:33.997Z,6.20
2017-09-30T02:29:01.351Z,9.07
2017-09-30T02:31:28.701Z,6.90
2017-09-30T02:33:56.048Z,5.90
2017-09-30T02:36:23.407Z,6.97
2017-09-30T02:38:50.770Z,7.53
2017-09-30T02:41:18.115Z,8.53
2017-09-30T02:43:45.434Z,6.00
2017-09-30T02:46:12.871Z,6.00
2017-09-30T02:48:40.225Z,8.93
2017-09-30T02:51:07.589Z,5.83
2017-09-30T02:53:34.972Z,6.90
2017-09-30T02:56:02.336Z,5.50
2017-09-30T02:58:29.667Z,8.43
2017-09-30T03:00:57.209Z,5.40
2017-09-30T03:03:24.516Z,6.00
2017-09-30T03:05:51.856Z,6.23
2017-09-30T03:08:19.218Z,11.50
2017-09-30T03:10:46.564Z,6.00
2017-09-30T03:13:13.919Z,6.53
2017-09-30T03:15:41.240Z,6.07
2017-09-30T03:18:08.571Z,8.00
2017-09-30T03:20:35.923Z,5.60
2017-09-30T03:23:03.261Z,7.07
2017-09-30T03:25:30.657Z,6.60
2017-09-30T03:27:57.980Z,6.20
2017-09-30T03:30:25.350Z,5.83
2017-09-30T03:32:52.705Z,6.70
2017-09-30T03:35:20.038Z,6.60
2017-09-30T03:37:47.386Z,6.77
2017-09-30T03:40:14.721Z,7.30
2017-09-30T03:42:42.100Z,6.00
2017-09-30T03:45:09.425Z,10.10
2017-09-30T03:47:36.792Z,7.93
2017-09-30T03:50:04.128Z,6.53
2017-09-30T03:52:31.464Z,6.10
2017-09-30T03:54:58.883Z,7.43
2017-09-30T03:57:26.237Z,8.50
2017-09-30T03:59:53.589Z,7.00
2017-09-30T04:02:20.907Z,6.03
2017-09-30T04:04:48.256Z,5.33
2017-09-30T04:07:15.593Z,8.87
2017-09-30T04:09:43.000Z,7.40
2017-09-30T04:12:10.340Z,9.67
2017-09-30T04:14:37.702Z,6.60
2017-09-30T04:17:05.057Z,5.87
2017-09-30T04:19:32.416Z,5.90
2017-09-30T04:21:59.770Z,6.60
2017-09-30T04:24:27.156Z,6.70
2017-09-30T04:26:54.480Z,8.13
2017-09-30T04:29:21.831Z,9.00
2017-09-30T04:31:49.173Z,5.93
2017-09-30T04:34:16.515Z,7.97
2017-09-30T04:36:43.838Z,5.97
2017-09-30T04:39:11.184Z,6.60
2017-09-30T04:41:38.534Z,6.30
2017-09-30T04:44:05.895Z,5.87
2017-09-30T04:46:33.247Z,7.10
2017-09-30T04:49:00.605Z,7.00
2017-09-30T04:51:27.962Z,5.87
2017-09-30T04:53:55.291Z,6.70
2017-09-30T04:56:22.655Z,5.90
2017-09-30T04:58:50.032Z,6.83
2017-09-30T05:01:17.365Z,7.00
2017-09-30T05:03:44.700Z,6.40
2017-09-30T05:06:12.075Z,6.13
2017-09-30T05:08:39.403Z,7.40
2017-09-30T05:11:06.860Z,7.07
2017-09-30T05:13:34.198Z,21.07
2017-09-30T05:16:01.581Z,60.12
2017-09-30T05:18:28.968Z,72.17
2017-09-30T05:20:56.348Z,83.13
2017-09-30T05:23:23.692Z,102.93
2017-09-30T05:25:51.109Z,104.87
2017-09-30T05:28:18.483Z,115.50
2017-09-30T05:30:45.878Z,115.80
2017-09-30T05:33:13.269Z,115.37
2017-09-30T05:35:40.637Z,116.37
2017-09-30T05:38:08.008Z,122.57
2017-09-30T05:40:35.393Z,137.50
2017-09-30T05:43:02.735Z,130.57
2017-09-30T05:45:30.139Z,133.30
2017-09-30T05:47:57.524Z,127.00
2017-09-30T05:50:24.905Z,136.83
2017-09-30T05:52:52.268Z,125.60
2017-09-30T05:55:19.624Z,116.70
2017-09-30T05:57:47.012Z,119.93
2017-09-30T06:00:14.468Z,127.97
2017-09-30T06:02:41.802Z,106.50
2017-09-30T06:05:09.180Z,107.87
2017-09-30T06:07:36.597Z,104.50
2017-09-30T06:10:03.983Z,95.70
2017-09-30T06:12:31.474Z,105.90
2017-09-30T06:14:58.857Z,102.23
2017-09-30T06:17:26.361Z,102.70
2017-09-30T06:19:53.669Z,92.50
2017-09-30T06:22:21.234Z,94.40
2017-09-30T06:24:48.583Z,84.90
2017-09-30T06:27:15.960Z,87.27
2017-09-30T06:29:43.288Z,85.10
2017-09-30T06:32:10.629Z,93.87
2017-09-30T06:34:37.975Z,80.73
2017-09-30T06:37:05.322Z,80.87
2017-09-30T06:39:32.707Z,78.43
2017-09-30T06:42:00.058Z,77.73
2017-09-30T06:44:27.433Z,88.27
2017-09-30T06:46:54.777Z,65.50
2017-09-30T06:49:22.154Z,69.57
2017-09-30T06:51:49.515Z,65.93
2017-09-30T06:54:16.861Z,63.20
2017-09-30T06:56:44.388Z,67.90
2017-09-30T06:59:11.754Z,63.97
2017-09-30T07:01:42.198Z,65.67
2017-09-30T07:04:09.565Z,71.43
2017-09-30T07:06:36.947Z,57.57
2017-09-30T07:09:04.317Z,72.10
2017-09-30T07:11:31.661Z,70.93
2017-09-30T07:13:59.032Z,63.50
2017-09-30T07:16:26.385Z,72.40
2017-09-30T07:18:54.118Z,62.30
2017-09-30T07:21:21.449Z,62.63
2017-09-30T07:23:48.875Z,65.00
2017-09-30T07:26:16.216Z,65.87
2017-09-30T07:28:43.588Z,59.23
2017-09-30T07:31:11.071Z,62.40
2017-09-30T07:33:38.455Z,58.20
2017-09-30T07:36:05.898Z,60.30
2017-09-30T07:38:33.252Z,61.13
2017-09-30T07:41:00.641Z,65.73
2017-09-30T07:43:28.020Z,60.90
2017-09-30T07:45:55.571Z,63.13
2017-09-30T07:48:22.964Z,65.50
2017-09-30T07:50:50.355Z,60.73
2017-09-30T07:53:17.728Z,69.13
2017-09-30T07:55:45.369Z,60.57
2017-09-30T07:58:12.721Z,62.03
2017-09-30T08:00:40.057Z,60.40
2017-09-30T08:03:07.402Z,65.43
2017-09-30T08:05:34.806Z,66.77
2017-09-30T08:08:02.164Z,62.23
2017-09-30T08:10:29.557Z,55.90
2017-09-30T08:12:56.960Z,57.17
2017-09-30T08:15:24.321Z,56.87
2017-09-30T08:17:52.490Z,62.43
2017-09-30T08:20:19.849Z,52.10
2017-09-30T08:22:47.378Z,63.13
2017-09-30T08:25:14.742Z,59.87
2017-09-30T08:27:42.135Z,55.10
2017-09-30T08:30:09.520Z,62.97
2017-09-30T08:32:36.923Z,53.80
2017-09-30T08:35:04.298Z,51.07
2017-09-30T08:37:31.654Z,47.57
2017-09-30T08:39:59.020Z,51.00
2017-09-30T08:42:26.409Z,43.30
2017-09-30T08:44:53.793Z,44.57
2017-09-30T08:47:21.151Z,42.27
2017-09-30T08:49:48.640Z,39.57
2017-09-30T08:52:16.066Z,46.80
2017-09-30T08:54:43.483Z,43.93
2017-09-30T08:57:10.864Z,44.53
2017-09-30T08:59:38.269Z,39.20
2017-09-30T09:02:05.644Z,40.63
2017-09-30T09:04:33.047Z,35.00
2017-09-30T09:07:00.458Z,35.80
2017-09-30T09:09:27.873Z,34.92
2017-09-30T09:11:55.217Z,40.77
2017-09-30T09:14:22.664Z,32.67
2017-09-30T09:16:49.990Z,36.70
2017-09-30T09:19:17.402Z,41.30
2017-09-30T09:21:44.783Z,41.00
2017-09-30T09:24:12.112Z,37.27
2017-09-30T09:26:39.510Z,37.60
2017-09-30T09:29:06.855Z,43.03
2017-09-30T09:31:34.239Z,37.03
2017-09-30T09:34:01.652Z,40.63
2017-09-30T09:36:29.061Z,40.63
2017-09-30T09:38:56.408Z,37.40
2017-09-30T09:41:23.823Z,35.67
2017-09-30T09:43:51.217Z,35.87
2017-09-30T09:46:18.599Z,33.83
2017-09-30T09:48:45.972Z,34.17
2017-09-30T09:51:13.335Z,29.70
2017-09-30T09:53:40.739Z,28.40
2017-09-30T09:56:08.073Z,26.20
2017-09-30T09:58:35.450Z,24.83
2017-09-30T10:01:02.820Z,29.53
2017-09-30T10:03:30.178Z,28.43
2017-09-30T10:05:57.544Z,25.77
2017-09-30T10:08:24.918Z,25.60
2017-09-30T10:10:52.304Z,26.40
2017-09-30T10:13:19.680Z,28.20
2017-09-30T10:15:47.088Z,25.90
2017-09-30T10:18:14.437Z,23.77
2017-09-30T10:20:41.807Z,25.53
2017-09-30T10:23:09.223Z,24.33
2017-09-30T10:25:36.655Z,26.43
2017-09-30T10:28:04.037Z,24.60
2017-09-30T10:30:31.400Z,23.57
2017-09-30T10:32:58.753Z,20.63
2017-09-30T10:35:26.158Z,21.10
2017-09-30T10:37:53.518Z,22.93
2017-09-30T10:40:20.913Z,20.27
2017-09-30T10:42:48.286Z,23.37
2017-09-30T10:45:15.651Z,21.03
2017-09-30T10:47:43.018Z,24.10
2017-09-30T10:50:10.414Z,29.20
2017-09-30T10:52:37.760Z,32.70
2017-09-30T10:55:05.161Z,27.80
2017-09-30T10:57:32.556Z,29.20
2017-09-30T10:59:59.910Z,27.53
2017-09-30T11:02:27.400Z,26.83
2017-09-30T11:04:54.763Z,25.70
2017-09-30T11:07:22.189Z,32.20
2017-09-30T11:09:49.590Z,27.23
2017-09-30T11:12:16.938Z,28.07
2017-09-30T11:14:44.352Z,28.43
2017-09-30T11:17:11.781Z,32.07
2017-09-30T11:19:39.129Z,34.13
2017-09-30T11:22:06.677Z,30.70
2017-09-30T11:24:34.267Z,26.77
2017-09-30T11:27:01.661Z,30.10
2017-09-30T11:29:29.141Z,31.23
2017-09-30T11:31:56.508Z,28.20
2017-09-30T11:34:23.889Z,30.43
2017-09-30T11:36:51.284Z,31.30
2017-09-30T11:39:18.630Z,29.83
2017-09-30T11:41:46.015Z,26.10
2017-09-30T11:44:13.387Z,30.27
2017-09-30T11:46:40.759Z,26.60
2017-09-30T11:49:08.119Z,25.33
2017-09-30T11:51:35.508Z,29.50
2017-09-30T11:54:02.921Z,25.70
2017-09-30T11:56:30.335Z,27.97
2017-09-30T11:58:57.745Z,25.77
2017-09-30T12:01:25.096Z,25.77
2017-09-30T12:03:52.504Z,30.80
2017-09-30T12:06:19.867Z,29.70
2017-09-30T12:08:47.283Z,27.40
2017-09-30T12:11:14.638Z,27.40
2017-09-30T12:13:41.991Z,26.07
2017-09-30T12:16:09.387Z,28.73
2017-09-30T12:18:36.766Z,25.37
2017-09-30T12:21:04.175Z,30.87
2017-09-30T12:23:31.540Z,35.60
2017-09-30T12:25:58.924Z,37.77
2017-09-30T12:28:26.397Z,29.53
2017-09-30T12:30:53.775Z,33.90
2017-09-30T12:33:21.175Z,34.07
2017-09-30T12:35:48.515Z,33.70
2017-09-30T12:38:15.889Z,36.03
2017-09-30T12:40:43.240Z,31.63
2017-09-30T12:43:10.656Z,30.53
2017-09-30T12:45:38.009Z,28.17
2017-09-30T12:48:05.398Z,34.03
2017-09-30T12:50:32.749Z,27.47
2017-09-30T12:53:00.143Z,31.93
2017-09-30T12:55:27.529Z,28.70
2017-09-30T12:57:54.922Z,24.87
2017-09-30T13:00:22.276Z,29.70
2017-09-30T13:02:49.615Z,23.53
2017-09-30T13:05:17.035Z,27.67
2017-09-30T13:07:44.373Z,33.40
2017-09-30T13:10:11.744Z,28.30
2017-09-30T13:12:39.158Z,28.10
2017-09-30T13:15:06.561Z,26.50
2017-09-30T13:17:33.960Z,32.50
2017-09-30T13:20:01.343Z,32.87
2017-09-30T13:22:28.720Z,29.70
2017-09-30T13:24:56.081Z,26.70
2017-09-30T13:27:23.468Z,26.37
2017-09-30T13:29:50.863Z,25.40
2017-09-30T13:32:18.277Z,27.90
2017-09-30T13:34:45.670Z,29.43
2017-09-30T13:37:13.045Z,27.93
2017-09-30T13:39:40.417Z,23.47
2017-09-30T13:42:07.880Z,22.10
2017-09-30T13:44:35.380Z,35.30
2017-09-30T13:48:31.434Z,19.20
2017-09-30T13:50:58.809Z,25.07
2017-09-30T13:53:26.158Z,15.90
2017-09-30T13:55:53.539Z,17.73
2017-09-30T13:58:20.895Z,16.50
2017-09-30T14:00:48.263Z,14.30
2017-09-30T14:03:15.626Z,13.83
2017-09-30T14:05:43.039Z,14.53
2017-09-30T14:08:10.437Z,15.03
2017-09-30T14:10:37.798Z,13.27
2017-09-30T14:13:05.225Z,12.60
2017-09-30T14:15:32.662Z,14.80
2017-09-30T14:18:00.070Z,16.00
2017-09-30T14:20:27.658Z,13.33
2017-09-30T14:22:55.106Z,16.83
2017-09-30T14:25:22.469Z,13.63
2017-09-30T14:27:49.856Z,14.93
2017-09-30T14:30:17.209Z,11.53
2017-09-30T14:32:44.577Z,16.60
2017-09-30T14:35:11.981Z,16.53
2017-09-30T14:37:39.349Z,13.10
2017-09-30T14:40:06.720Z,11.87
2017-09-30T14:42:34.106Z,15.73
2017-09-30T14:45:01.478Z,12.50
2017-09-30T14:47:28.829Z,12.17
2017-09-30T14:49:56.222Z,13.63
2017-09-30T14:52:23.684Z,10.40
2017-09-30T14:54:51.089Z,16.20
2017-09-30T14:57:18.491Z,12.97
2017-09-30T14:59:45.857Z,15.93
2017-09-30T15:02:13.212Z,10.43
2017-09-30T15:04:40.597Z,12.63
2017-09-30T15:07:07.962Z,12.67
2017-09-30T15:09:35.340Z,11.73
2017-09-30T15:12:02.755Z,11.50
2017-09-30T15:14:30.104Z,13.33
2017-09-30T15:16:57.564Z,10.80
2017-09-30T15:19:24.969Z,11.13
2017-09-30T15:21:52.368Z,14.10
2017-09-30T15:24:19.832Z,8.67
2017-09-30T15:26:47.313Z,10.50
2017-09-30T15:29:14.649Z,9.70
2017-09-30T15:31:42.046Z,14.23
2017-09-30T15:34:09.419Z,10.10
2017-09-30T15:36:36.868Z,8.73
2017-09-30T15:39:04.208Z,11.50
2017-09-30T15:41:31.641Z,6.50
2017-09-30T15:43:58.985Z,9.13
2017-09-30T15:46:26.333Z,6.20
2017-09-30T15:48:53.695Z,8.83
2017-09-30T15:51:21.106Z,11.60
2017-09-30T15:53:48.460Z,6.00
2017-09-30T15:56:15.816Z,10.90
2017-09-30T15:58:43.188Z,8.97
2017-09-30T16:01:10.569Z,15.10
2017-09-30T16:03:37.933Z,12.40
2017-09-30T16:06:05.312Z,10.57
2017-09-30T16:08:32.663Z,12.53
2017-09-30T16:11:00.040Z,6.73
2017-09-30T16:13:27.402Z,14.27
2017-09-30T16:15:54.803Z,10.97
2017-09-30T16:18:22.166Z,8.10
2017-09-30T16:20:49.514Z,17.67
2017-09-30T16:23:16.896Z,16.67
2017-09-30T16:25:44.241Z,13.07
2017-09-30T16:28:11.638Z,15.13
2017-09-30T16:30:39.029Z,12.40
2017-09-30T16:33:06.500Z,6.17
2017-09-30T16:35:33.951Z,11.00
2017-09-30T16:38:01.339Z,7.67
2017-09-30T16:40:28.719Z,7.30
2017-09-30T16:42:56.076Z,8.67
2017-09-30T16:45:23.472Z,9.83
2017-09-30T16:47:50.855Z,8.30
2017-09-30T16:50:18.240Z,9.67
2017-09-30T16:52:45.584Z,7.13
2017-09-30T16:55:12.921Z,5.43
2017-09-30T16:57:40.308Z,8.77
2017-09-30T17:00:07.739Z,6.80
2017-09-30T17:02:35.096Z,8.13
2017-09-30T17:05:02.468Z,7.83
2017-09-30T17:07:29.826Z,12.63
2017-09-30T17:09:57.194Z,5.23
2017-09-30T17:12:24.661Z,4.27
2017-09-30T17:14:51.958Z,8.17
2017-09-30T17:17:19.460Z,3.10
2017-09-30T17:19:46.850Z,6.50
2017-09-30T17:22:14.331Z,5.60
2017-09-30T17:24:41.675Z,4.17
2017-09-30T17:27:09.013Z,6.83
2017-09-30T17:29:36.445Z,4.70
2017-09-30T17:32:03.772Z,7.47
2017-09-30T17:34:31.203Z,5.93
2017-09-30T17:36:58.656Z,4.30
2017-09-30T17:39:26.268Z,5.27
2017-09-30T17:41:53.639Z,6.10
2017-09-30T17:44:20.975Z,5.93
2017-09-30T17:46:48.397Z,3.43
2017-09-30T17:49:15.735Z,5.90
2017-09-30T17:51:43.114Z,9.83
2017-09-30T17:54:10.546Z,8.50
2017-09-30T17:56:37.940Z,7.10
2017-09-30T17:59:05.333Z,12.83
2017-09-30T18:01:32.700Z,6.87
2017-09-30T18:04:00.064Z,5.20
2017-09-30T18:06:27.416Z,9.63
2017-09-30T18:08:54.794Z,17.00
2017-09-30T18:11:22.201Z,2.83
2017-09-30T18:13:49.583Z,8.90
2017-09-30T18:16:17.062Z,15.93
2017-09-30T18:18:44.463Z,5.50
2017-09-30T18:21:11.813Z,5.53
2017-09-30T18:23:39.137Z,4.10
2017-09-30T18:26:06.532Z,4.10
2017-09-30T18:28:33.886Z,8.10
2017-09-30T18:31:01.293Z,4.70
2017-09-30T18:33:28.642Z,4.33
2017-09-30T18:35:56.044Z,4.20
2017-09-30T18:38:23.374Z,6.53
2017-09-30T18:40:50.781Z,3.53
2017-09-30T18:43:18.267Z,5.40
2017-09-30T18:45:45.666Z,6.03
2017-09-30T18:48:12.996Z,6.30
2017-09-30T18:50:40.376Z,5.70
2017-09-30T18:53:07.769Z,6.87
2017-09-30T18:55:35.369Z,5.03
2017-09-30T18:58:02.727Z,5.83
2017-09-30T19:00:30.083Z,5.13
2017-09-30T19:02:57.598Z,4.80
2017-09-30T19:05:24.884Z,5.83
2017-09-30T19:07:52.268Z,7.10
2017-09-30T19:10:19.613Z,4.57
2017-09-30T19:12:46.987Z,9.07
2017-09-30T19:15:14.364Z,5.87
2017-09-30T19:17:41.736Z,4.23
2017-09-30T19:20:09.092Z,10.00
2017-09-30T19:22:36.421Z,5.67
2017-09-30T19:25:03.793Z,6.10
2017-09-30T19:27:31.155Z,4.37
2017-09-30T19:29:58.494Z,6.70
2017-09-30T19:32:26.036Z,6.20
2017-09-30T19:34:53.379Z,5.60
2017-09-30T19:37:20.769Z,13.07
2017-09-30T19:39:48.098Z,4.67
2017-09-30T19:42:15.496Z,7.53
2017-09-30T19:44:42.837Z,4.60
2017-09-30T19:47:10.190Z,5.40
2017-09-30T19:49:37.663Z,6.93
2017-09-30T19:52:05.126Z,5.23
2017-09-30T19:54:32.467Z,7.63
2017-09-30T19:56:59.857Z,7.93
2017-09-30T19:59:27.263Z,8.30
2017-09-30T20:01:54.649Z,5.03
2017-09-30T20:04:22.045Z,6.73
2017-09-30T20:06:49.516Z,5.20
2017-09-30T20:09:16.849Z,9.93
2017-09-30T20:11:44.268Z,7.10
2017-09-30T20:14:11.637Z,12.70
2017-09-30T20:16:39.070Z,15.40
2017-09-30T20:19:06.447Z,11.63
2017-09-30T20:21:33.790Z,12.90
2017-09-30T20:24:01.275Z,11.67
2017-09-30T20:26:28.662Z,17.30
2017-09-30T20:28:56.074Z,4.57
2017-09-30T20:31:23.579Z,7.63
2017-09-30T20:33:50.933Z,7.40
2017-09-30T20:36:18.300Z,9.47
2017-09-30T20:38:45.724Z,8.73
2017-09-30T20:41:13.080Z,5.37
2017-09-30T20:43:40.437Z,6.00
2017-09-30T20:46:07.821Z,4.37
2017-09-30T20:48:35.195Z,8.50
2017-09-30T20:51:02.560Z,9.23
2017-09-30T20:53:29.919Z,4.63
2017-09-30T20:55:57.302Z,6.20
2017-09-30T20:58:24.625Z,3.63
2017-09-30T21:00:52.168Z,4.60
2017-09-30T21:03:19.697Z,7.03
2017-09-30T21:05:47.090Z,4.27
2017-09-30T21:08:14.432Z,10.60
2017-09-30T21:10:41.785Z,6.70
2017-09-30T21:13:09.168Z,4.27
2017-09-30T21:15:36.504Z,6.73
2017-09-30T21:18:03.869Z,3.00
2017-09-30T21:20:31.211Z,6.03
2017-09-30T21:22:58.564Z,7.93
2017-09-30T21:25:25.932Z,6.80
2017-09-30T21:27:53.281Z,8.67
2017-09-30T21:30:20.661Z,4.93
2017-09-30T21:32:48.085Z,3.80
2017-09-30T21:35:15.404Z,4.97
2017-09-30T21:37:42.792Z,7.10
2017-09-30T21:40:10.132Z,7.50
2017-09-30T21:42:37.501Z,9.33
2017-09-30T21:45:04.837Z,5.37
2017-09-30T21:47:32.189Z,7.10
2017-09-30T21:49:59.542Z,13.17
2017-09-30T21:52:26.891Z,6.00
2017-09-30T21:54:54.341Z,10.73
2017-09-30T21:57:21.710Z,13.33
2017-09-30T21:59:49.076Z,13.20
2017-09-30T22:02:16.412Z,4.63
2017-09-30T22:04:43.778Z,5.40
2017-09-30T22:07:11.145Z,7.33
2017-09-30T22:09:38.481Z,5.93
2017-09-30T22:12:05.840Z,4.00
2017-09-30T22:14:33.147Z,6.03
2017-09-30T22:17:00.515Z,3.97
2017-09-30T22:19:27.889Z,3.37
2017-09-30T22:21:55.246Z,3.83
2017-09-30T22:24:22.568Z,4.27
2017-09-30T22:26:49.930Z,8.73
2017-09-30T22:29:17.323Z,9.80
2017-09-30T22:31:44.662Z,6.57
2017-09-30T22:34:12.049Z,3.60
2017-09-30T22:36:39.410Z,5.33
2017-09-30T22:39:06.755Z,5.33
2017-09-30T22:41:34.125Z,7.50
2017-09-30T22:44:01.476Z,5.83
2017-09-30T22:46:28.836Z,3.63
2017-09-30T22:48:56.148Z,6.13
2017-09-30T22:51:23.564Z,4.50
2017-09-30T22:53:50.921Z,4.77
2017-09-30T22:56:18.360Z,4.10
2017-09-30T22:58:45.792Z,3.77
2017-09-30T23:01:13.152Z,3.60
2017-09-30T23:03:40.509Z,5.73
2017-09-30T23:06:07.860Z,3.10
2017-09-30T23:08:35.257Z,3.70
2017-09-30T23:11:02.644Z,5.87
2017-09-30T23:13:30.010Z,5.37
2017-09-30T23:15:57.361Z,6.33
2017-09-30T23:18:24.701Z,5.10
2017-09-30T23:20:52.058Z,2.40
2017-09-30T23:23:19.403Z,4.03
2017-09-30T23:25:46.745Z,3.00
2017-09-30T23:28:14.105Z,4.73
2017-09-30T23:30:41.483Z,2.90
2017-09-30T23:33:08.814Z,3.23
2017-09-30T23:35:36.203Z,6.63
2017-09-30T23:38:03.527Z,4.30
2017-09-30T23:40:30.875Z,4.23
2017-09-30T23:42:58.624Z,5.33
2017-09-30T23:45:25.943Z,2.63
2017-09-30T23:47:53.307Z,8.40
2017-09-30T23:50:20.751Z,3.00
2017-09-30T23:52:48.083Z,3.50
2017-09-30T23:55:15.404Z,5.77
2017-09-30T23:57:42.780Z,3.00
